FK-0010 weather

Saunders Island Landing Strip
Saunders Island Settlement, Falkland Islands

Public forecast

Using degrees Celsius for public forecast. Weather courtesy of forecast.io.

METAR (pilot weather report)

Closest report is Mount Pleasant Airport, 66.9 nm (123.9 km) ESE. Retrieved 2019/09/19 02:50 UTC (17 minutes ago):

EGYP 190250Z 03007KT 9999 -RA FEW007 BKN018 OVC022 02/02 Q0981

TAF (pilot weather forecast)

Closest forecast is Mount Pleasant Airport, 66.9 nm (123.9 km) ESE. Retrieved 2019/09/19 03:53 UTC (0 seconds ago):

TAF EGYP 190141Z 1903/1921 04009KT 9999 FEW007 BKN025 TEMPO 1903/1915 4000 RADZ SCT005 BKN007 PROB40 TEMPO 1903/1907 3000 -DZ SCT004 BKN006 PROB40 TEMPO 1907/1912 2000 DZ RASN BKN004 OVC008 TEMPO 1915/1921 4000 SHRASN SCT014CB